Oakland, California
Current Conditions -  °F | °C
As of 7:53 PM on Saturday 25 Oct 2014 (Local Time) from KOAK Reporting Station
Scattered Clouds Scattered Clouds  
Wind Chill: 17°   Ceiling: Unl
Heat Index: 17°   Visibility: 10mi
Dew Point: 13°   Wind: 9mph
Humidity: 75%   Direction: 270°W
Pressure: 30.1"   Gusts: NA
Location:  37.81°N, 122.27°W
Report Text: KOAK 260253Z 27008KT 10SM FEW019 SCT032 SCT050 17/13 A3010 RMK AO2 SLP191 T01720128 53010
Loading
Personal Weather Stations






























Interactive Weather Map New forecast layout! Learn more

10-Day Weather Forecast

Advertisements
Track Severe Weather on mobile